sensor_id;sensor_type;location;lat;lon;timestamp;temperature;humidity
6462;DHT22;3264;42.862;25.098;2023-03-14T00:00:17;0.50;99.90
6462;DHT22;3264;42.862;25.098;2023-03-14T00:02:51;0.60;99.90
6462;DHT22;3264;42.862;25.098;2023-03-14T00:05:21;0.70;99.90
6462;DHT22;3264;42.862;25.098;2023-03-14T00:07:50;0.70;99.90
6462;DHT22;3264;42.862;25.098;2023-03-14T00:10:19;0.80;99.90
6462;DHT22;3264;42.862;25.098;2023-03-14T00:12:50;0.80;99.90
6462;DHT22;3264;42.862;25.098;2023-03-14T00:15:19;0.60;99.90
6462;DHT22;3264;42.862;25.098;2023-03-14T00:17:48;0.60;99.90
6462;DHT22;3264;42.862;25.098;2023-03-14T00:20:17;0.60;99.90
6462;DHT22;3264;42.862;25.098;2023-03-14T00:22:46;0.50;99.90
6462;DHT22;3264;42.862;25.098;2023-03-14T00:25:14;0.50;99.90
6462;DHT22;3264;42.862;25.098;2023-03-14T00:27:44;0.60;99.90
6462;DHT22;3264;42.862;25.098;2023-03-14T00:30:13;0.50;99.90
6462;DHT22;3264;42.862;25.098;2023-03-14T00:32:42;0.50;99.90
6462;DHT22;3264;42.862;25.098;2023-03-14T00:35:11;0.60;99.90
6462;DHT22;3264;42.862;25.098;2023-03-14T00:37:39;0.60;99.90
6462;DHT22;3264;42.862;25.098;2023-03-14T00:40:09;0.80;99.90
6462;DHT22;3264;42.862;25.098;2023-03-14T00:42:37;0.70;99.90
6462;DHT22;3264;42.862;25.098;2023-03-14T00:45:07;0.70;99.90
6462;DHT22;3264;42.862;25.098;2023-03-14T00:47:39;0.80;99.90
6462;DHT22;3264;42.862;25.098;2023-03-14T00:50:11;0.70;99.90
6462;DHT22;3264;42.862;25.098;2023-03-14T00:52:40;0.60;99.90
6462;DHT22;3264;42.862;25.098;2023-03-14T00:55:09;0.60;99.90
6462;DHT22;3264;42.862;25.098;2023-03-14T00:57:37;0.40;99.90
6462;DHT22;3264;42.862;25.098;2023-03-14T01:00:08;0.40;99.90
6462;DHT22;3264;42.862;25.098;2023-03-14T01:02:40;0.40;99.90
6462;DHT22;3264;42.862;25.098;2023-03-14T01:05:09;0.50;99.90
6462;DHT22;3264;42.862;25.098;2023-03-14T01:07:39;0.40;99.90
6462;DHT22;3264;42.862;25.098;2023-03-14T01:10:08;0.50;99.90
6462;DHT22;3264;42.862;25.098;2023-03-14T01:12:37;0.50;99.90
6462;DHT22;3264;42.862;25.098;2023-03-14T01:15:07;0.60;99.90
6462;DHT22;3264;42.862;25.098;2023-03-14T01:17:35;0.40;99.90
6462;DHT22;3264;42.862;25.098;2023-03-14T01:20:08;0.30;99.90
6462;DHT22;3264;42.862;25.098;2023-03-14T01:22:38;0.40;99.90
6462;DHT22;3264;42.862;25.098;2023-03-14T01:25:10;0.40;99.90
6462;DHT22;3264;42.862;25.098;2023-03-14T01:27:38;0.50;99.90
6462;DHT22;3264;42.862;25.098;2023-03-14T01:30:08;0.40;99.90
6462;DHT22;3264;42.862;25.098;2023-03-14T01:32:37;0.40;99.90
6462;DHT22;3264;42.862;25.098;2023-03-14T01:35:08;0.30;99.90
6462;DHT22;3264;42.862;25.098;2023-03-14T01:37:37;0.20;99.90
6462;DHT22;3264;42.862;25.098;2023-03-14T01:40:06;0.30;99.90
6462;DHT22;3264;42.862;25.098;2023-03-14T01:42:34;0.30;99.90
6462;DHT22;3264;42.862;25.098;2023-03-14T01:45:04;0.30;99.90
6462;DHT22;3264;42.862;25.098;2023-03-14T01:47:32;0.20;99.90
6462;DHT22;3264;42.862;25.098;2023-03-14T01:50:05;0.20;99.90
6462;DHT22;3264;42.862;25.098;2023-03-14T01:52:37;0.20;99.90
6462;DHT22;3264;42.862;25.098;2023-03-14T01:55:12;0.20;99.90
6462;DHT22;3264;42.862;25.098;2023-03-14T01:57:44;0.20;99.90
6462;DHT22;3264;42.862;25.098;2023-03-14T02:00:16;0.30;99.90
6462;DHT22;3264;42.862;25.098;2023-03-14T02:02:46;0.30;99.90
6462;DHT22;3264;42.862;25.098;2023-03-14T02:05:18;0.30;99.90
6462;DHT22;3264;42.862;25.098;2023-03-14T02:07:50;0.30;99.90
6462;DHT22;3264;42.862;25.098;2023-03-14T02:10:22;0.30;99.90
6462;DHT22;3264;42.862;25.098;2023-03-14T02:12:54;0.30;99.90
6462;DHT22;3264;42.862;25.098;2023-03-14T02:15:24;0.20;99.90
6462;DHT22;3264;42.862;25.098;2023-03-14T02:17:52;0.10;99.90
6462;DHT22;3264;42.862;25.098;2023-03-14T02:20:28;0.10;99.90
6462;DHT22;3264;42.862;25.098;2023-03-14T02:23:01;0.20;99.90
6462;DHT22;3264;42.862;25.098;2023-03-14T02:25:39;0.20;99.90
6462;DHT22;3264;42.862;25.098;2023-03-14T02:28:12;0.20;99.90
6462;DHT22;3264;42.862;25.098;2023-03-14T02:30:41;0.30;99.90
6462;DHT22;3264;42.862;25.098;2023-03-14T02:33:12;0.20;99.90
6462;DHT22;3264;42.862;25.098;2023-03-14T02:35:45;0.20;99.90
6462;DHT22;3264;42.862;25.098;2023-03-14T02:38:20;0.30;99.90
6462;DHT22;3264;42.862;25.098;2023-03-14T02:40:51;0.20;99.90
6462;DHT22;3264;42.862;25.098;2023-03-14T02:43:21;0.20;99.90
6462;DHT22;3264;42.862;25.098;2023-03-14T02:45:51;0.00;99.90
6462;DHT22;3264;42.862;25.098;2023-03-14T02:48:23;0.00;99.90
6462;DHT22;3264;42.862;25.098;2023-03-14T02:50:55;0.00;99.90
6462;DHT22;3264;42.862;25.098;2023-03-14T02:53:26;-0.10;99.90
6462;DHT22;3264;42.862;25.098;2023-03-14T02:55:56;-0.10;99.90
6462;DHT22;3264;42.862;25.098;2023-03-14T02:58:27;-0.10;99.90
6462;DHT22;3264;42.862;25.098;2023-03-14T03:00:57;-0.20;99.90
6462;DHT22;3264;42.862;25.098;2023-03-14T03:03:26;-0.20;99.90
6462;DHT22;3264;42.862;25.098;2023-03-14T03:05:56;-0.30;99.90
6462;DHT22;3264;42.862;25.098;2023-03-14T03:08:26;-0.30;99.90
6462;DHT22;3264;42.862;25.098;2023-03-14T03:10:56;-0.40;99.90
6462;DHT22;3264;42.862;25.098;2023-03-14T03:13:26;-0.20;99.90
6462;DHT22;3264;42.862;25.098;2023-03-14T03:15:56;-0.40;99.90
6462;DHT22;3264;42.862;25.098;2023-03-14T03:18:25;-0.40;99.90
6462;DHT22;3264;42.862;25.098;2023-03-14T03:20:54;-0.30;99.90
6462;DHT22;3264;42.862;25.098;2023-03-14T03:23:23;-0.20;99.90
6462;DHT22;3264;42.862;25.098;2023-03-14T03:25:52;-0.20;99.90
6462;DHT22;3264;42.862;25.098;2023-03-14T03:28:20;-0.30;99.90
6462;DHT22;3264;42.862;25.098;2023-03-14T03:30:51;-0.40;99.90
6462;DHT22;3264;42.862;25.098;2023-03-14T03:33:20;-0.40;99.90
6462;DHT22;3264;42.862;25.098;2023-03-14T03:35:51;-0.50;99.90
6462;DHT22;3264;42.862;25.098;2023-03-14T03:38:19;-0.40;99.90
6462;DHT22;3264;42.862;25.098;2023-03-14T03:40:48;-0.40;99.90
6462;DHT22;3264;42.862;25.098;2023-03-14T03:43:17;-0.40;99.90
6462;DHT22;3264;42.862;25.098;2023-03-14T03:45:46;-0.40;99.90
6462;DHT22;3264;42.862;25.098;2023-03-14T03:48:15;-0.40;99.90
6462;DHT22;3264;42.862;25.098;2023-03-14T03:50:47;-0.50;99.90
6462;DHT22;3264;42.862;25.098;2023-03-14T03:53:15;-0.40;99.90
6462;DHT22;3264;42.862;25.098;2023-03-14T03:55:45;-0.50;99.90
6462;DHT22;3264;42.862;25.098;2023-03-14T03:58:12;-0.50;99.90
6462;DHT22;3264;42.862;25.098;2023-03-14T04:00:42;-0.40;99.90
6462;DHT22;3264;42.862;25.098;2023-03-14T04:03:10;-0.30;99.90
6462;DHT22;3264;42.862;25.098;2023-03-14T04:05:41;-0.30;99.90
6462;DHT22;3264;42.862;25.098;2023-03-14T04:08:09;-0.20;99.90
6462;DHT22;3264;42.862;25.098;2023-03-14T04:10:39;-0.10;99.90
6462;DHT22;3264;42.862;25.098;2023-03-14T04:13:06;-0.10;99.90
6462;DHT22;3264;42.862;25.098;2023-03-14T04:15:36;-0.20;99.90
6462;DHT22;3264;42.862;25.098;2023-03-14T04:18:03;-0.30;99.90
6462;DHT22;3264;42.862;25.098;2023-03-14T04:20:36;-0.30;99.90
6462;DHT22;3264;42.862;25.098;2023-03-14T04:23:05;-0.30;99.90
6462;DHT22;3264;42.862;25.098;2023-03-14T04:25:34;-0.30;99.90
6462;DHT22;3264;42.862;25.098;2023-03-14T04:28:03;-0.30;99.90
6462;DHT22;3264;42.862;25.098;2023-03-14T04:30:32;-0.20;99.90
6462;DHT22;3264;42.862;25.098;2023-03-14T04:33:02;-0.30;99.90
6462;DHT22;3264;42.862;25.098;2023-03-14T04:35:31;-0.40;99.90
6462;DHT22;3264;42.862;25.098;2023-03-14T04:38:01;-0.40;99.90
6462;DHT22;3264;42.862;25.098;2023-03-14T04:40:32;-0.40;99.90
6462;DHT22;3264;42.862;25.098;2023-03-14T04:43:00;-0.40;99.90
6462;DHT22;3264;42.862;25.098;2023-03-14T04:45:29;-0.30;99.90
6462;DHT22;3264;42.862;25.098;2023-03-14T04:47:58;-0.40;99.90
6462;DHT22;3264;42.862;25.098;2023-03-14T04:50:27;-0.40;99.90
6462;DHT22;3264;42.862;25.098;2023-03-14T04:52:56;-0.30;99.90
6462;DHT22;3264;42.862;25.098;2023-03-14T04:55:25;-0.30;99.90
6462;DHT22;3264;42.862;25.098;2023-03-14T04:57:55;-0.40;99.90
6462;DHT22;3264;42.862;25.098;2023-03-14T05:00:25;-0.30;99.90
6462;DHT22;3264;42.862;25.098;2023-03-14T05:02:54;-0.20;99.90
6462;DHT22;3264;42.862;25.098;2023-03-14T05:05:24;-0.20;99.90
6462;DHT22;3264;42.862;25.098;2023-03-14T05:07:53;-0.30;99.90
6462;DHT22;3264;42.862;25.098;2023-03-14T05:10:22;-0.30;99.90
6462;DHT22;3264;42.862;25.098;2023-03-14T05:12:52;-0.20;99.90
6462;DHT22;3264;42.862;25.098;2023-03-14T05:15:23;-0.20;99.90
6462;DHT22;3264;42.862;25.098;2023-03-14T05:17:52;-0.10;99.90
6462;DHT22;3264;42.862;25.098;2023-03-14T05:20:22;-0.10;99.90
6462;DHT22;3264;42.862;25.098;2023-03-14T05:22:50;0.10;99.90
6462;DHT22;3264;42.862;25.098;2023-03-14T05:25:20;0.40;99.90
6462;DHT22;3264;42.862;25.098;2023-03-14T05:27:49;0.50;99.90
6462;DHT22;3264;42.862;25.098;2023-03-14T05:30:16;0.50;99.90
6462;DHT22;3264;42.862;25.098;2023-03-14T05:32:47;0.60;99.90
6462;DHT22;3264;42.862;25.098;2023-03-14T05:35:16;0.80;99.90
6462;DHT22;3264;42.862;25.098;2023-03-14T05:37:45;0.90;99.90
6462;DHT22;3264;42.862;25.098;2023-03-14T05:40:13;1.10;99.90
6462;DHT22;3264;42.862;25.098;2023-03-14T05:42:42;1.10;99.90
6462;DHT22;3264;42.862;25.098;2023-03-14T05:45:11;1.40;99.90
6462;DHT22;3264;42.862;25.098;2023-03-14T05:47:40;1.60;99.10
6462;DHT22;3264;42.862;25.098;2023-03-14T05:50:10;1.90;98.80
6462;DHT22;3264;42.862;25.098;2023-03-14T05:52:39;2.20;98.10
6462;DHT22;3264;42.862;25.098;2023-03-14T05:55:09;2.40;95.90
6462;DHT22;3264;42.862;25.098;2023-03-14T05:57:38;2.40;96.00
6462;DHT22;3264;42.862;25.098;2023-03-14T06:00:08;2.30;95.80
6462;DHT22;3264;42.862;25.098;2023-03-14T06:02:39;2.50;94.90
6462;DHT22;3264;42.862;25.098;2023-03-14T06:05:10;2.80;94.80
6462;DHT22;3264;42.862;25.098;2023-03-14T06:07:39;3.10;94.40
6462;DHT22;3264;42.862;25.098;2023-03-14T06:10:08;3.30;93.40
6462;DHT22;3264;42.862;25.098;2023-03-14T06:12:38;3.40;92.80
6462;DHT22;3264;42.862;25.098;2023-03-14T06:15:08;3.30;92.70
6462;DHT22;3264;42.862;25.098;2023-03-14T06:17:37;3.30;92.20
6462;DHT22;3264;42.862;25.098;2023-03-14T06:20:06;3.10;90.90
6462;DHT22;3264;42.862;25.098;2023-03-14T06:22:37;3.50;91.80
6462;DHT22;3264;42.862;25.098;2023-03-14T06:25:09;3.80;91.40
6462;DHT22;3264;42.862;25.098;2023-03-14T06:27:38;4.00;90.20
6462;DHT22;3264;42.862;25.098;2023-03-14T06:30:08;4.20;88.20
6462;DHT22;3264;42.862;25.098;2023-03-14T06:32:37;4.30;87.60
6462;DHT22;3264;42.862;25.098;2023-03-14T06:35:06;4.50;86.30
6462;DHT22;3264;42.862;25.098;2023-03-14T06:37:37;4.80;86.80
6462;DHT22;3264;42.862;25.098;2023-03-14T06:40:07;4.80;83.10
6462;DHT22;3264;42.862;25.098;2023-03-14T06:42:36;5.20;82.30
6462;DHT22;3264;42.862;25.098;2023-03-14T06:45:06;5.30;76.20
6462;DHT22;3264;42.862;25.098;2023-03-14T06:47:35;5.70;74.90
6462;DHT22;3264;42.862;25.098;2023-03-14T06:50:07;6.00;74.30
6462;DHT22;3264;42.862;25.098;2023-03-14T06:52:37;6.10;73.10
6462;DHT22;3264;42.862;25.098;2023-03-14T06:55:08;6.20;71.30
6462;DHT22;3264;42.862;25.098;2023-03-14T06:57:38;6.30;73.30
6462;DHT22;3264;42.862;25.098;2023-03-14T07:00:07;7.10;74.90
6462;DHT22;3264;42.862;25.098;2023-03-14T07:02:36;7.20;70.70
6462;DHT22;3264;42.862;25.098;2023-03-14T07:05:06;7.80;69.50
6462;DHT22;3264;42.862;25.098;2023-03-14T07:07:37;8.00;68.30
6462;DHT22;3264;42.862;25.098;2023-03-14T07:10:06;7.70;65.70
6462;DHT22;3264;42.862;25.098;2023-03-14T07:12:36;8.10;66.70
6462;DHT22;3264;42.862;25.098;2023-03-14T07:15:06;8.60;67.20
6462;DHT22;3264;42.862;25.098;2023-03-14T07:17:35;8.10;59.10
6462;DHT22;3264;42.862;25.098;2023-03-14T07:20:05;8.80;60.60
6462;DHT22;3264;42.862;25.098;2023-03-14T07:22:37;8.50;58.50
6462;DHT22;3264;42.862;25.098;2023-03-14T07:25:07;8.60;58.30
6462;DHT22;3264;42.862;25.098;2023-03-14T07:27:39;9.30;58.20
6462;DHT22;3264;42.862;25.098;2023-03-14T07:30:08;9.40;59.50
6462;DHT22;3264;42.862;25.098;2023-03-14T07:32:37;9.30;56.80
6462;DHT22;3264;42.862;25.098;2023-03-14T07:35:08;9.60;59.40
6462;DHT22;3264;42.862;25.098;2023-03-14T07:37:38;10.10;57.20
6462;DHT22;3264;42.862;25.098;2023-03-14T07:40:07;10.30;55.00
6462;DHT22;3264;42.862;25.098;2023-03-14T07:42:38;10.40;54.20
6462;DHT22;3264;42.862;25.098;2023-03-14T07:45:08;10.70;55.20
6462;DHT22;3264;42.862;25.098;2023-03-14T07:47:37;10.70;52.40
6462;DHT22;3264;42.862;25.098;2023-03-14T07:50:06;11.00;51.50
6462;DHT22;3264;42.862;25.098;2023-03-14T07:52:37;11.30;53.70
6462;DHT22;3264;42.862;25.098;2023-03-14T07:55:08;10.90;48.40
6462;DHT22;3264;42.862;25.098;2023-03-14T07:57:38;11.60;52.90
6462;DHT22;3264;42.862;25.098;2023-03-14T08:00:08;11.90;53.60
6462;DHT22;3264;42.862;25.098;2023-03-14T08:02:38;12.10;52.70
6462;DHT22;3264;42.862;25.098;2023-03-14T08:05:08;12.80;50.60
6462;DHT22;3264;42.862;25.098;2023-03-14T08:07:39;12.90;48.70
6462;DHT22;3264;42.862;25.098;2023-03-14T08:10:08;13.40;49.30
6462;DHT22;3264;42.862;25.098;2023-03-14T08:12:40;13.20;49.10
6462;DHT22;3264;42.862;25.098;2023-03-14T08:15:10;14.00;47.20
6462;DHT22;3264;42.862;25.098;2023-03-14T08:17:40;13.90;44.80
6462;DHT22;3264;42.862;25.098;2023-03-14T08:20:09;14.40;43.80
6462;DHT22;3264;42.862;25.098;2023-03-14T08:22:40;14.60;39.90
6462;DHT22;3264;42.862;25.098;2023-03-14T08:25:10;15.10;38.00
6462;DHT22;3264;42.862;25.098;2023-03-14T08:27:39;14.70;39.10
6462;DHT22;3264;42.862;25.098;2023-03-14T08:30:09;15.10;41.40
6462;DHT22;3264;42.862;25.098;2023-03-14T08:32:39;16.20;43.60
6462;DHT22;3264;42.862;25.098;2023-03-14T08:35:09;15.80;39.80
6462;DHT22;3264;42.862;25.098;2023-03-14T08:37:40;16.00;39.20
6462;DHT22;3264;42.862;25.098;2023-03-14T08:40:09;15.90;39.90
6462;DHT22;3264;42.862;25.098;2023-03-14T08:42:39;15.80;40.20
6462;DHT22;3264;42.862;25.098;2023-03-14T08:45:10;16.00;40.60
6462;DHT22;3264;42.862;25.098;2023-03-14T08:47:40;16.30;40.00
6462;DHT22;3264;42.862;25.098;2023-03-14T08:50:09;17.40;41.50
6462;DHT22;3264;42.862;25.098;2023-03-14T08:52:40;17.70;41.40
6462;DHT22;3264;42.862;25.098;2023-03-14T08:55:10;17.00;40.70
6462;DHT22;3264;42.862;25.098;2023-03-14T08:57:39;16.40;41.40
6462;DHT22;3264;42.862;25.098;2023-03-14T09:00:08;15.00;41.70
6462;DHT22;3264;42.862;25.098;2023-03-14T09:02:41;16.20;43.30
6462;DHT22;3264;42.862;25.098;2023-03-14T09:05:11;15.40;41.70
6462;DHT22;3264;42.862;25.098;2023-03-14T09:07:42;16.40;41.00
6462;DHT22;3264;42.862;25.098;2023-03-14T09:10:10;16.20;41.30
6462;DHT22;3264;42.862;25.098;2023-03-14T09:12:40;15.80;39.40
6462;DHT22;3264;42.862;25.098;2023-03-14T09:15:10;17.40;39.80
6462;DHT22;3264;42.862;25.098;2023-03-14T09:17:39;16.80;38.30
6462;DHT22;3264;42.862;25.098;2023-03-14T09:20:08;16.70;38.60
6462;DHT22;3264;42.862;25.098;2023-03-14T09:22:38;17.40;38.30
6462;DHT22;3264;42.862;25.098;2023-03-14T09:25:09;17.20;36.80
6462;DHT22;3264;42.862;25.098;2023-03-14T09:27:37;17.30;37.00
6462;DHT22;3264;42.862;25.098;2023-03-14T09:30:07;16.50;35.60
6462;DHT22;3264;42.862;25.098;2023-03-14T09:32:36;17.00;35.90
6462;DHT22;3264;42.862;25.098;2023-03-14T09:35:06;17.50;36.20
6462;DHT22;3264;42.862;25.098;2023-03-14T09:37:35;16.70;34.60
6462;DHT22;3264;42.862;25.098;2023-03-14T09:40:09;17.70;35.30
6462;DHT22;3264;42.862;25.098;2023-03-14T09:42:41;18.70;34.40
6462;DHT22;3264;42.862;25.098;2023-03-14T09:45:18;19.20;35.70
6462;DHT22;3264;42.862;25.098;2023-03-14T09:47:53;19.50;34.90
6462;DHT22;3264;42.862;25.098;2023-03-14T09:50:24;19.60;34.30
6462;DHT22;3264;42.862;25.098;2023-03-14T09:52:58;19.60;35.10
6462;DHT22;3264;42.862;25.098;2023-03-14T09:55:30;19.20;34.90
6462;DHT22;3264;42.862;25.098;2023-03-14T09:58:03;19.20;33.40
6462;DHT22;3264;42.862;25.098;2023-03-14T10:00:38;19.30;33.50
6462;DHT22;3264;42.862;25.098;2023-03-14T10:03:22;19.20;33.20
6462;DHT22;3264;42.862;25.098;2023-03-14T10:05:51;20.20;35.00
6462;DHT22;3264;42.862;25.098;2023-03-14T10:08:21;19.80;34.30
6462;DHT22;3264;42.862;25.098;2023-03-14T10:10:52;19.50;33.90
6462;DHT22;3264;42.862;25.098;2023-03-14T10:13:23;19.00;33.00
6462;DHT22;3264;42.862;25.098;2023-03-14T10:15:58;19.90;34.00
6462;DHT22;3264;42.862;25.098;2023-03-14T10:18:30;19.10;31.60
6462;DHT22;3264;42.862;25.098;2023-03-14T10:21:07;20.10;33.50
6462;DHT22;3264;42.862;25.098;2023-03-14T10:23:37;20.40;32.90
6462;DHT22;3264;42.862;25.098;2023-03-14T10:26:13;21.10;33.40
6462;DHT22;3264;42.862;25.098;2023-03-14T10:28:46;20.90;32.20
6462;DHT22;3264;42.862;25.098;2023-03-14T10:31:14;21.00;32.50
6462;DHT22;3264;42.862;25.098;2023-03-14T10:33:59;21.60;33.00
6462;DHT22;3264;42.862;25.098;2023-03-14T10:36:31;21.30;32.60
6462;DHT22;3264;42.862;25.098;2023-03-14T10:39:26;21.50;32.60
6462;DHT22;3264;42.862;25.098;2023-03-14T10:42:04;21.60;32.40
6462;DHT22;3264;42.862;25.098;2023-03-14T10:44:34;21.60;31.40
6462;DHT22;3264;42.862;25.098;2023-03-14T10:47:04;21.70;31.30
6462;DHT22;3264;42.862;25.098;2023-03-14T10:49:35;22.00;32.20
6462;DHT22;3264;42.862;25.098;2023-03-14T10:52:19;22.00;31.50
6462;DHT22;3264;42.862;25.098;2023-03-14T10:54:49;21.60;30.60
6462;DHT22;3264;42.862;25.098;2023-03-14T10:57:24;21.50;30.80
6462;DHT22;3264;42.862;25.098;2023-03-14T10:59:53;21.60;30.80
6462;DHT22;3264;42.862;25.098;2023-03-14T11:02:41;22.10;32.10
6462;DHT22;3264;42.862;25.098;2023-03-14T11:05:22;22.00;31.50
6462;DHT22;3264;42.862;25.098;2023-03-14T11:07:55;21.60;30.50
6462;DHT22;3264;42.862;25.098;2023-03-14T11:10:31;22.30;32.00
6462;DHT22;3264;42.862;25.098;2023-03-14T11:13:15;21.90;31.30
6462;DHT22;3264;42.862;25.098;2023-03-14T11:15:53;21.40;30.60
6462;DHT22;3264;42.862;25.098;2023-03-14T11:21:40;22.30;31.70
6462;DHT22;3264;42.862;25.098;2023-03-14T11:24:23;22.90;33.50
6462;DHT22;3264;42.862;25.098;2023-03-14T11:26:58;23.20;31.20
6462;DHT22;3264;42.862;25.098;2023-03-14T11:29:36;21.90;31.30
6462;DHT22;3264;42.862;25.098;2023-03-14T11:32:13;22.10;31.30
6462;DHT22;3264;42.862;25.098;2023-03-14T11:34:51;22.80;32.40
6462;DHT22;3264;42.862;25.098;2023-03-14T11:37:25;22.20;30.20
6462;DHT22;3264;42.862;25.098;2023-03-14T11:40:01;22.80;31.10
6462;DHT22;3264;42.862;25.098;2023-03-14T11:42:35;22.70;31.10
6462;DHT22;3264;42.862;25.098;2023-03-14T11:45:10;22.30;29.70
6462;DHT22;3264;42.862;25.098;2023-03-14T11:47:44;22.40;30.00
6462;DHT22;3264;42.862;25.098;2023-03-14T11:50:16;22.10;31.00
6462;DHT22;3264;42.862;25.098;2023-03-14T11:52:49;22.90;31.80
6462;DHT22;3264;42.862;25.098;2023-03-14T11:55:21;22.20;29.10
6462;DHT22;3264;42.862;25.098;2023-03-14T11:57:58;21.50;29.00
6462;DHT22;3264;42.862;25.098;2023-03-14T12:00:31;21.20;30.00
6462;DHT22;3264;42.862;25.098;2023-03-14T12:03:05;21.90;30.80
6462;DHT22;3264;42.862;25.098;2023-03-14T12:05:51;22.50;31.30
6462;DHT22;3264;42.862;25.098;2023-03-14T12:08:42;22.00;29.80
6462;DHT22;3264;42.862;25.098;2023-03-14T12:11:30;22.50;31.30
6462;DHT22;3264;42.862;25.098;2023-03-14T12:14:00;22.50;30.50
6462;DHT22;3264;42.862;25.098;2023-03-14T12:16:38;22.10;29.50
6462;DHT22;3264;42.862;25.098;2023-03-14T12:19:28;22.90;30.80
6462;DHT22;3264;42.862;25.098;2023-03-14T12:22:01;22.60;30.40
6462;DHT22;3264;42.862;25.098;2023-03-14T12:24:36;22.70;31.20
6462;DHT22;3264;42.862;25.098;2023-03-14T12:27:09;22.50;30.90
6462;DHT22;3264;42.862;25.098;2023-03-14T12:30:00;22.40;29.90
6462;DHT22;3264;42.862;25.098;2023-03-14T12:32:31;22.30;30.70
6462;DHT22;3264;42.862;25.098;2023-03-14T12:35:30;21.80;29.80
6462;DHT22;3264;42.862;25.098;2023-03-14T12:38:00;22.30;30.50
6462;DHT22;3264;42.862;25.098;2023-03-14T12:40:34;21.80;29.50
6462;DHT22;3264;42.862;25.098;2023-03-14T12:43:10;21.30;29.40
6462;DHT22;3264;42.862;25.098;2023-03-14T12:46:09;21.30;29.30
6462;DHT22;3264;42.862;25.098;2023-03-14T12:48:47;21.70;29.80
6462;DHT22;3264;42.862;25.098;2023-03-14T12:51:20;22.50;32.40
6462;DHT22;3264;42.862;25.098;2023-03-14T12:53:58;22.10;29.40
6462;DHT22;3264;42.862;25.098;2023-03-14T12:56:45;22.00;29.60
6462;DHT22;3264;42.862;25.098;2023-03-14T12:59:30;21.00;30.30
6462;DHT22;3264;42.862;25.098;2023-03-14T13:02:24;20.90;31.10
6462;DHT22;3264;42.862;25.098;2023-03-14T13:05:02;21.00;30.60
6462;DHT22;3264;42.862;25.098;2023-03-14T13:07:35;21.00;29.70
6462;DHT22;3264;42.862;25.098;2023-03-14T13:10:19;20.90;30.70
6462;DHT22;3264;42.862;25.098;2023-03-14T13:12:54;20.20;30.00
6462;DHT22;3264;42.862;25.098;2023-03-14T13:15:29;20.50;30.80
6462;DHT22;3264;42.862;25.098;2023-03-14T13:18:02;20.70;31.50
6462;DHT22;3264;42.862;25.098;2023-03-14T13:20:36;21.00;31.90
6462;DHT22;3264;42.862;25.098;2023-03-14T13:23:20;21.10;30.30
6462;DHT22;3264;42.862;25.098;2023-03-14T13:25:49;21.50;30.90
6462;DHT22;3264;42.862;25.098;2023-03-14T13:28:19;20.90;29.20
6462;DHT22;3264;42.862;25.098;2023-03-14T13:30:50;21.00;29.50
6462;DHT22;3264;42.862;25.098;2023-03-14T13:33:24;19.80;30.00
6462;DHT22;3264;42.862;25.098;2023-03-14T13:35:58;19.40;30.70
6462;DHT22;3264;42.862;25.098;2023-03-14T13:38:29;20.00;32.40
6462;DHT22;3264;42.862;25.098;2023-03-14T13:40:59;19.20;31.30
6462;DHT22;3264;42.862;25.098;2023-03-14T13:43:31;18.80;31.10
6462;DHT22;3264;42.862;25.098;2023-03-14T13:46:03;19.20;31.50
6462;DHT22;3264;42.862;25.098;2023-03-14T13:48:34;19.50;32.50
6462;DHT22;3264;42.862;25.098;2023-03-14T13:51:07;19.70;34.00
6462;DHT22;3264;42.862;25.098;2023-03-14T13:53:43;20.30;33.80
6462;DHT22;3264;42.862;25.098;2023-03-14T13:56:13;19.50;31.30
6462;DHT22;3264;42.862;25.098;2023-03-14T13:58:44;19.90;33.20
6462;DHT22;3264;42.862;25.098;2023-03-14T14:01:16;19.30;32.20
6462;DHT22;3264;42.862;25.098;2023-03-14T14:03:49;19.10;32.40
6462;DHT22;3264;42.862;25.098;2023-03-14T14:06:26;19.10;33.80
6462;DHT22;3264;42.862;25.098;2023-03-14T14:08:58;19.10;32.70
6462;DHT22;3264;42.862;25.098;2023-03-14T14:11:37;19.40;34.10
6462;DHT22;3264;42.862;25.098;2023-03-14T14:14:13;19.70;34.30
6462;DHT22;3264;42.862;25.098;2023-03-14T14:16:46;19.40;33.10
6462;DHT22;3264;42.862;25.098;2023-03-14T14:19:17;19.20;33.40
6462;DHT22;3264;42.862;25.098;2023-03-14T14:21:49;18.80;33.50
6462;DHT22;3264;42.862;25.098;2023-03-14T14:24:21;17.90;32.30
6462;DHT22;3264;42.862;25.098;2023-03-14T14:26:52;18.20;33.50
6462;DHT22;3264;42.862;25.098;2023-03-14T14:29:27;18.30;33.30
6462;DHT22;3264;42.862;25.098;2023-03-14T14:32:08;17.80;33.50
6462;DHT22;3264;42.862;25.098;2023-03-14T14:34:41;17.70;33.70
6462;DHT22;3264;42.862;25.098;2023-03-14T14:37:21;17.80;33.40
6462;DHT22;3264;42.862;25.098;2023-03-14T14:39:53;17.70;33.50
6462;DHT22;3264;42.862;25.098;2023-03-14T14:42:26;17.90;33.30
6462;DHT22;3264;42.862;25.098;2023-03-14T14:44:57;18.00;34.00
6462;DHT22;3264;42.862;25.098;2023-03-14T14:47:28;18.00;34.20
6462;DHT22;3264;42.862;25.098;2023-03-14T14:50:02;18.00;34.40
6462;DHT22;3264;42.862;25.098;2023-03-14T14:52:40;18.00;34.80
6462;DHT22;3264;42.862;25.098;2023-03-14T14:55:17;17.90;34.50
6462;DHT22;3264;42.862;25.098;2023-03-14T14:57:50;17.40;34.30
6462;DHT22;3264;42.862;25.098;2023-03-14T15:00:21;17.40;34.20
6462;DHT22;3264;42.862;25.098;2023-03-14T15:02:53;17.30;34.50
6462;DHT22;3264;42.862;25.098;2023-03-14T15:05:23;17.00;34.40
6462;DHT22;3264;42.862;25.098;2023-03-14T15:07:54;17.40;36.00
6462;DHT22;3264;42.862;25.098;2023-03-14T15:10:25;17.10;34.60
6462;DHT22;3264;42.862;25.098;2023-03-14T15:12:55;16.90;34.80
6462;DHT22;3264;42.862;25.098;2023-03-14T15:15:24;16.80;35.50
6462;DHT22;3264;42.862;25.098;2023-03-14T15:17:53;16.90;35.80
6462;DHT22;3264;42.862;25.098;2023-03-14T15:20:23;16.90;35.60
6462;DHT22;3264;42.862;25.098;2023-03-14T15:22:54;16.50;35.10
6462;DHT22;3264;42.862;25.098;2023-03-14T15:25:24;16.60;35.50
6462;DHT22;3264;42.862;25.098;2023-03-14T15:27:53;16.40;35.60
6462;DHT22;3264;42.862;25.098;2023-03-14T15:30:22;16.20;37.90
6462;DHT22;3264;42.862;25.098;2023-03-14T15:32:52;16.20;37.80
6462;DHT22;3264;42.862;25.098;2023-03-14T15:35:21;16.00;37.30
6462;DHT22;3264;42.862;25.098;2023-03-14T15:37:52;16.00;37.20
6462;DHT22;3264;42.862;25.098;2023-03-14T15:40:24;15.80;38.00
6462;DHT22;3264;42.862;25.098;2023-03-14T15:42:53;15.80;37.20
6462;DHT22;3264;42.862;25.098;2023-03-14T15:45:23;15.60;37.30
6462;DHT22;3264;42.862;25.098;2023-03-14T15:47:54;15.30;37.20
6462;DHT22;3264;42.862;25.098;2023-03-14T15:50:24;15.20;37.90
6462;DHT22;3264;42.862;25.098;2023-03-14T15:52:55;15.30;37.80
6462;DHT22;3264;42.862;25.098;2023-03-14T15:55:24;15.10;38.00
6462;DHT22;3264;42.862;25.098;2023-03-14T15:57:53;15.10;39.00
6462;DHT22;3264;42.862;25.098;2023-03-14T16:00:23;14.90;38.20
6462;DHT22;3264;42.862;25.098;2023-03-14T16:02:52;14.90;38.60
6462;DHT22;3264;42.862;25.098;2023-03-14T16:05:22;14.80;38.70
6462;DHT22;3264;42.862;25.098;2023-03-14T16:07:51;14.70;39.70
6462;DHT22;3264;42.862;25.098;2023-03-14T16:10:21;14.60;40.40
6462;DHT22;3264;42.862;25.098;2023-03-14T16:12:51;14.60;40.30
6462;DHT22;3264;42.862;25.098;2023-03-14T16:15:19;14.40;41.70
6462;DHT22;3264;42.862;25.098;2023-03-14T16:17:52;14.20;42.00
6462;DHT22;3264;42.862;25.098;2023-03-14T16:20:21;14.30;40.70